createdAt,value
2018-08-16T00:02:14.830Z,98276.97
2018-08-16T00:04:43.075Z,98272.33
2018-08-16T00:07:11.383Z,98282.11
2018-08-16T00:09:39.683Z,98279.92
2018-08-16T00:12:08.007Z,98278.72
2018-08-16T00:14:36.284Z,98278.53
2018-08-16T00:17:04.536Z,98276.16
2018-08-16T00:19:32.818Z,98269.69
2018-08-16T00:22:01.087Z,98270.22
2018-08-16T00:24:29.487Z,98267.03
2018-08-16T00:26:57.864Z,98263.85
2018-08-16T00:29:26.136Z,98258.86
2018-08-16T00:31:54.399Z,98259.59
2018-08-16T00:34:22.663Z,98249.98
2018-08-16T00:36:50.863Z,98250.25
2018-08-16T00:39:19.145Z,98249.02
2018-08-16T00:41:47.351Z,98241.88
2018-08-16T00:44:15.615Z,98240.48
2018-08-16T00:46:43.916Z,98236.02
2018-08-16T00:49:12.198Z,98235.41
2018-08-16T00:51:40.431Z,98236.80
2018-08-16T00:54:08.696Z,98238.36
2018-08-16T00:56:36.931Z,98228.15
2018-08-16T00:59:05.241Z,98234.09
2018-08-16T01:01:33.459Z,98220.84
2018-08-16T01:04:01.674Z,98235.73
2018-08-16T01:06:29.995Z,98231.47
2018-08-16T01:08:58.247Z,98237.58
2018-08-16T01:11:26.555Z,98230.98
2018-08-16T01:13:54.793Z,98225.75
2018-08-16T01:16:22.986Z,98227.24
2018-08-16T01:18:51.211Z,98214.03
2018-08-16T01:21:19.456Z,98223.98
2018-08-16T01:23:47.703Z,98226.45
2018-08-16T01:26:15.978Z,98221.30
2018-08-16T01:28:44.248Z,98227.73
2018-08-16T01:31:12.466Z,98224.91
2018-08-16T01:33:40.676Z,98224.63
2018-08-16T01:36:08.911Z,98219.09
2018-08-16T01:38:37.134Z,98221.22
2018-08-16T01:41:05.455Z,98213.52
2018-08-16T01:43:33.667Z,98214.47
2018-08-16T01:46:01.879Z,98216.14
2018-08-16T01:48:30.147Z,98217.98
2018-08-16T01:50:58.386Z,98212.86
2018-08-16T01:53:26.583Z,98217.98
2018-08-16T01:55:54.863Z,98216.09
2018-08-16T01:58:23.083Z,98213.31
2018-08-16T02:00:51.335Z,98214.88
2018-08-16T02:03:19.539Z,98207.98
2018-08-16T02:05:47.779Z,98206.84
2018-08-16T02:08:16.070Z,98209.75
2018-08-16T02:10:44.378Z,98203.36
2018-08-16T02:13:12.615Z,98205.94
2018-08-16T02:15:40.851Z,98204.87
2018-08-16T02:18:09.317Z,98206.55
2018-08-16T02:20:37.511Z,98204.78
2018-08-16T02:23:05.751Z,98202.36
2018-08-16T02:25:33.954Z,98202.61
2018-08-16T02:28:02.178Z,98192.11
2018-08-16T02:30:30.495Z,98201.70
2018-08-16T02:32:58.719Z,98201.53
2018-08-16T02:35:26.939Z,98198.43
2018-08-16T02:37:55.142Z,98194.86
2018-08-16T02:40:23.346Z,98194.25
2018-08-16T02:42:51.615Z,98193.59
2018-08-16T02:45:19.814Z,98192.81
2018-08-16T02:47:48.019Z,98196.66
2018-08-16T02:50:16.259Z,98194.88
2018-08-16T02:52:44.475Z,98198.69
2018-08-16T02:55:12.683Z,98196.81
2018-08-16T02:57:40.944Z,98194.61
2018-08-16T03:00:10.151Z,98192.55
2018-08-16T03:02:38.359Z,98193.94
2018-08-16T03:05:07.102Z,98192.58
2018-08-16T03:07:35.586Z,98187.95
2018-08-16T03:10:03.880Z,98187.73
2018-08-16T03:12:32.075Z,98186.80
2018-08-16T03:15:00.374Z,98187.73
2018-08-16T03:17:28.698Z,98181.75
2018-08-16T03:19:56.983Z,98177.13
2018-08-16T03:22:25.216Z,98172.48
2018-08-16T03:24:53.483Z,98177.36
2018-08-16T03:27:21.772Z,98174.76
2018-08-16T03:29:49.979Z,98175.27
2018-08-16T03:32:18.191Z,98167.25
2018-08-16T03:34:46.396Z,98169.95
2018-08-16T03:37:14.631Z,98164.50
2018-08-16T03:39:42.827Z,98159.72
2018-08-16T03:42:11.063Z,98164.34
2018-08-16T03:44:39.287Z,98157.59
2018-08-16T03:47:07.545Z,98158.17
2018-08-16T03:49:35.812Z,98154.27
2018-08-16T03:52:04.231Z,98158.57
2018-08-16T03:54:32.455Z,98159.02
2018-08-16T03:57:00.679Z,98156.52
2018-08-16T03:59:28.987Z,98152.88
2018-08-16T04:01:57.254Z,98155.20
2018-08-16T04:04:25.463Z,98152.25
2018-08-16T04:06:53.748Z,98157.00
2018-08-16T04:09:22.036Z,98148.52
2018-08-16T04:11:50.351Z,98152.58
2018-08-16T04:14:18.599Z,98141.11
2018-08-16T04:16:46.840Z,98157.60
2018-08-16T04:19:15.075Z,98159.75
2018-08-16T04:21:43.303Z,98157.94
2018-08-16T04:24:11.567Z,98156.60
2018-08-16T04:26:39.881Z,98156.06
2018-08-16T04:29:08.471Z,98161.59
2018-08-16T04:31:36.768Z,98161.87
2018-08-16T04:34:05.427Z,98157.69
2018-08-16T04:36:33.731Z,98161.02
2018-08-16T04:39:01.959Z,98164.37
2018-08-16T04:41:30.194Z,98150.95
2018-08-16T04:43:58.443Z,98158.45
2018-08-16T04:46:26.682Z,98164.03
2018-08-16T04:48:54.920Z,98168.45
2018-08-16T04:51:23.115Z,98168.22
2018-08-16T04:53:51.489Z,98165.27
2018-08-16T04:56:19.723Z,98162.23
2018-08-16T04:58:47.952Z,98168.84
2018-08-16T05:01:16.171Z,98167.98
2018-08-16T05:03:44.409Z,98164.79
2018-08-16T05:06:12.647Z,98164.34
2018-08-16T05:08:40.915Z,98169.55
2018-08-16T05:11:09.225Z,98158.69
2018-08-16T05:13:37.459Z,98170.85
2018-08-16T05:16:05.883Z,98166.26
2018-08-16T05:18:34.271Z,98164.21
2018-08-16T05:21:02.467Z,98161.22
2018-08-16T05:23:30.731Z,98162.86
2018-08-16T05:25:58.937Z,98160.11
2018-08-16T05:28:27.204Z,98164.58
2018-08-16T05:30:55.444Z,98168.84
2018-08-16T05:33:23.672Z,98152.48
2018-08-16T05:35:51.890Z,98162.80
2018-08-16T05:38:20.111Z,98146.70
2018-08-16T05:40:48.344Z,98163.98
2018-08-16T05:43:16.624Z,98159.30
2018-08-16T05:45:44.805Z,98163.00
2018-08-16T05:48:13.063Z,98163.23
2018-08-16T05:50:41.322Z,98163.47
2018-08-16T05:53:09.524Z,98165.02
2018-08-16T05:55:37.735Z,98165.84
2018-08-16T05:58:06.826Z,98170.11
2018-08-16T06:00:35.080Z,98168.91
2018-08-16T06:03:03.354Z,98165.31
2018-08-16T06:05:31.589Z,98163.64
2018-08-16T06:07:59.807Z,98162.96
2018-08-16T06:10:28.083Z,98168.74
2018-08-16T06:12:56.302Z,98161.09
2018-08-16T06:15:24.549Z,98161.47
2018-08-16T06:17:52.748Z,98163.91
2018-08-16T06:20:21.015Z,98163.59
2018-08-16T06:22:49.226Z,98157.84
2018-08-16T06:25:17.475Z,98162.00
2018-08-16T06:27:45.719Z,98160.37
2018-08-16T06:30:16.131Z,98154.86
2018-08-16T06:32:45.423Z,98150.59
2018-08-16T06:35:14.914Z,98154.56
2018-08-16T06:37:43.201Z,98155.20
2018-08-16T06:40:13.695Z,98149.77
2018-08-16T06:42:41.923Z,98148.59
2018-08-16T06:45:10.663Z,98151.94
2018-08-16T06:47:38.880Z,98144.03
2018-08-16T06:50:07.498Z,98140.55
2018-08-16T06:52:35.762Z,98136.21
2018-08-16T06:55:04.627Z,98137.70
2018-08-16T06:57:32.927Z,98135.52
2018-08-16T07:00:01.185Z,98142.30
2018-08-16T07:02:29.473Z,98137.91
2018-08-16T07:04:57.824Z,98138.22
2018-08-16T07:07:26.195Z,98127.77
2018-08-16T07:09:54.425Z,98131.77
2018-08-16T07:12:22.696Z,98130.72
2018-08-16T07:14:50.920Z,98125.77
2018-08-16T07:17:19.119Z,98128.14
2018-08-16T07:19:47.339Z,98125.77
2018-08-16T07:22:15.591Z,98126.98
2018-08-16T07:24:43.816Z,98128.38
2018-08-16T07:27:12.186Z,98125.77
2018-08-16T07:29:40.415Z,98121.80
2018-08-16T07:32:08.624Z,98126.90
2018-08-16T07:34:36.847Z,98121.92
2018-08-16T07:37:05.088Z,98123.24
2018-08-16T07:39:33.327Z,98118.34
2018-08-16T07:42:01.567Z,98114.98
2018-08-16T07:44:29.803Z,98108.84
2018-08-16T07:46:58.051Z,98109.60
2018-08-16T07:49:26.291Z,98113.12
2018-08-16T07:51:54.591Z,98108.94
2018-08-16T07:54:22.727Z,98105.52
2018-08-16T07:56:50.941Z,98107.40
2018-08-16T07:59:19.166Z,98112.44
2018-08-16T08:01:47.391Z,98105.92
2018-08-16T08:04:15.694Z,98102.98
2018-08-16T08:06:43.900Z,98115.70
2018-08-16T08:09:12.336Z,98113.89
2018-08-16T08:11:40.421Z,98110.89
2018-08-16T08:14:08.834Z,98116.97
2018-08-16T08:16:37.244Z,98112.30
2018-08-16T08:19:05.753Z,98099.91
2018-08-16T08:21:33.950Z,98104.95
2018-08-16T08:24:02.187Z,98102.13
2018-08-16T08:26:30.432Z,98096.69
2018-08-16T08:28:58.678Z,98103.53
2018-08-16T08:31:27.419Z,98098.32
2018-08-16T08:33:55.629Z,98093.09
2018-08-16T08:36:35.196Z,98085.63
2018-08-16T08:39:03.680Z,98083.37
2018-08-16T08:41:31.936Z,98088.75
2018-08-16T08:44:34.276Z,98078.55
2018-08-16T08:47:02.511Z,98081.53
2018-08-16T08:49:30.711Z,98079.31
2018-08-16T08:51:58.979Z,98082.48
2018-08-16T08:54:47.919Z,98081.93
2018-08-16T08:57:27.483Z,98075.59
2018-08-16T08:59:55.709Z,98072.53
2018-08-16T09:02:23.964Z,98061.28
2018-08-16T09:04:52.224Z,98075.21
2018-08-16T09:07:21.247Z,98066.41
2018-08-16T09:11:02.591Z,98062.07
2018-08-16T09:13:42.398Z,98050.63
2018-08-16T09:16:14.122Z,98050.25
2018-08-16T09:18:42.371Z,98056.91
2018-08-16T09:21:11.367Z,98053.44
2018-08-16T09:23:39.623Z,98053.01
2018-08-16T09:26:13.108Z,98049.05
2018-08-16T09:28:41.559Z,98050.22
2018-08-16T09:31:21.980Z,98042.11
2018-08-16T09:34:31.983Z,98039.66
2018-08-16T09:37:00.203Z,98039.68
2018-08-16T09:39:28.443Z,98033.33
2018-08-16T09:41:56.618Z,98029.82
2018-08-16T09:44:24.827Z,98024.52
2018-08-16T09:47:05.439Z,98028.97
2018-08-16T09:49:35.583Z,98023.71
2018-08-16T09:52:04.239Z,98022.37
2018-08-16T09:54:32.479Z,98013.50
2018-08-16T09:57:01.984Z,98012.39
2018-08-16T09:59:30.199Z,98008.52
2018-08-16T10:01:58.496Z,98008.65
2018-08-16T10:04:26.765Z,98011.73
2018-08-16T10:06:54.960Z,98008.23
2018-08-16T10:09:24.436Z,98012.78
2018-08-16T10:11:53.052Z,98003.10
2018-08-16T10:14:21.631Z,98002.14
2018-08-16T10:16:49.874Z,98002.52
2018-08-16T10:19:18.343Z,98000.28
2018-08-16T10:21:46.524Z,97990.73
2018-08-16T10:24:14.759Z,97992.75
2018-08-16T10:26:42.979Z,97988.42
2018-08-16T10:29:11.679Z,97981.18
2018-08-16T10:31:39.875Z,97977.66
2018-08-16T10:34:08.184Z,97977.88
2018-08-16T10:36:36.399Z,97971.45
2018-08-16T10:39:08.411Z,97970.38
2018-08-16T10:41:36.691Z,97961.62
2018-08-16T10:44:05.047Z,97955.17
2018-08-16T10:46:33.359Z,97954.11
2018-08-16T10:49:01.611Z,97955.08
2018-08-16T10:51:29.799Z,97952.01
2018-08-16T10:53:58.075Z,97956.61
2018-08-16T10:56:26.319Z,97949.86
2018-08-16T10:58:54.562Z,97947.03
2018-08-16T11:01:22.959Z,97946.97
2018-08-16T11:03:51.151Z,97947.20
2018-08-16T11:06:19.376Z,97944.45
2018-08-16T11:08:47.600Z,97942.31
2018-08-16T11:11:15.806Z,97931.14
2018-08-16T11:13:44.039Z,97929.98
2018-08-16T11:16:12.231Z,97929.59
2018-08-16T11:18:40.453Z,97921.65
2018-08-16T11:21:08.667Z,97924.69
2018-08-16T11:23:36.871Z,97928.94
2018-08-16T11:26:05.167Z,97926.63
2018-08-16T11:28:33.424Z,97927.31
2018-08-16T11:31:02.220Z,97924.16
2018-08-16T11:33:30.542Z,97920.72
2018-08-16T11:35:58.805Z,97910.77
2018-08-16T11:38:27.010Z,97907.53
2018-08-16T11:40:55.215Z,97911.36
2018-08-16T11:43:23.415Z,97903.39
2018-08-16T11:45:51.603Z,97907.11
2018-08-16T11:48:19.791Z,97894.08
2018-08-16T11:50:47.980Z,97899.30
2018-08-16T11:53:16.171Z,97895.67
2018-08-16T11:55:44.373Z,97892.40
2018-08-16T11:58:12.569Z,97887.98
2018-08-16T12:00:40.798Z,97895.43
2018-08-16T12:03:09.174Z,97889.02
2018-08-16T12:05:37.350Z,97891.34
2018-08-16T12:08:05.539Z,97885.39
2018-08-16T12:10:33.757Z,97875.82
2018-08-16T12:13:01.949Z,97879.27
2018-08-16T12:15:30.139Z,97880.85
2018-08-16T12:17:58.351Z,97877.84
2018-08-16T12:20:26.803Z,97870.06
2018-08-16T12:22:54.991Z,97873.48
2018-08-16T12:25:23.194Z,97867.25
2018-08-16T12:27:51.375Z,97863.77
2018-08-16T12:30:19.583Z,97872.05
2018-08-16T12:32:47.766Z,97859.16
2018-08-16T12:35:16.079Z,97857.45
2018-08-16T12:37:44.426Z,97857.07
2018-08-16T12:40:12.671Z,97856.15
2018-08-16T12:42:40.859Z,97849.84
2018-08-16T12:45:09.306Z,97849.53
2018-08-16T12:47:37.500Z,97849.28
2018-08-16T12:50:06.559Z,97850.33
2018-08-16T12:52:34.770Z,97846.69
2018-08-16T12:55:02.975Z,97849.99
2018-08-16T12:57:31.171Z,97848.39
2018-08-16T12:59:59.375Z,97845.83
2018-08-16T13:02:27.569Z,97839.02
2018-08-16T13:04:55.824Z,97836.78
2018-08-16T13:07:24.027Z,97834.30
2018-08-16T13:09:52.245Z,97834.19
2018-08-16T13:12:20.468Z,97832.57
2018-08-16T13:14:48.690Z,97831.61
2018-08-16T13:17:16.888Z,97824.91
2018-08-16T13:19:45.114Z,97824.61
2018-08-16T13:22:13.343Z,97816.97
2018-08-16T13:24:41.572Z,97817.52
2018-08-16T13:27:10.374Z,97812.81
2018-08-16T13:29:38.547Z,97809.60
2018-08-16T13:32:07.019Z,97809.67
2018-08-16T13:34:35.216Z,97812.03
2018-08-16T13:37:03.441Z,97801.92
2018-08-16T13:39:31.648Z,97797.16
2018-08-16T13:41:59.843Z,97804.54
2018-08-16T13:44:28.192Z,97794.06
2018-08-16T13:46:56.397Z,97786.02
2018-08-16T13:49:24.623Z,97791.05
2018-08-16T13:51:52.838Z,97787.34
2018-08-16T13:54:21.051Z,97785.70
2018-08-16T13:56:49.263Z,97783.75
2018-08-16T13:59:17.462Z,97778.88
2018-08-16T14:01:45.684Z,97771.36
2018-08-16T14:04:13.874Z,97771.12
2018-08-16T14:06:42.068Z,97771.97
2018-08-16T14:09:11.434Z,97767.42
2018-08-16T14:11:39.619Z,97765.97
2018-08-16T14:14:07.807Z,97766.25
2018-08-16T14:16:36.023Z,97756.92
2018-08-16T14:19:04.516Z,97761.38
2018-08-16T14:21:32.824Z,97762.41
2018-08-16T14:24:01.080Z,97756.72
2018-08-16T14:26:29.295Z,97761.80
2018-08-16T14:28:57.516Z,97762.88
2018-08-16T14:31:25.753Z,97754.06
2018-08-16T14:33:54.179Z,97757.16
2018-08-16T14:36:22.371Z,97752.52
2018-08-16T14:38:50.667Z,97747.66
2018-08-16T14:41:18.795Z,97743.89
2018-08-16T14:43:46.987Z,97753.69
2018-08-16T14:46:15.230Z,97749.80
2018-08-16T14:48:43.483Z,97735.34
2018-08-16T14:51:11.749Z,97730.86
2018-08-16T14:53:39.948Z,97740.16
2018-08-16T14:56:08.331Z,97738.11
2018-08-16T14:58:36.591Z,97732.17
2018-08-16T15:01:05.191Z,97732.67
2018-08-16T15:03:33.419Z,97727.55
2018-08-16T15:06:01.702Z,97731.02
2018-08-16T15:08:29.929Z,97733.57
2018-08-16T15:10:58.170Z,97725.64
2018-08-16T15:13:31.776Z,97724.06
2018-08-16T15:15:59.980Z,97729.48
2018-08-16T15:18:28.216Z,97724.95
2018-08-16T15:20:56.447Z,97723.88
2018-08-16T15:23:24.672Z,97721.97
2018-08-16T15:25:52.915Z,97725.48
2018-08-16T15:28:21.582Z,97721.25
2018-08-16T15:30:49.886Z,97717.36
2018-08-16T15:33:18.262Z,97715.86
2018-08-16T15:35:46.515Z,97716.13
2018-08-16T15:38:14.737Z,97712.98
2018-08-16T15:40:43.035Z,97716.27
2018-08-16T15:43:11.634Z,97701.66
2018-08-16T15:45:39.882Z,97708.61
2018-08-16T15:48:13.148Z,97710.21
2018-08-16T15:50:41.699Z,97697.45
2018-08-16T15:53:09.919Z,97696.18
2018-08-16T15:55:38.511Z,97695.14
2018-08-16T15:58:06.951Z,97702.94
2018-08-16T16:00:35.195Z,97693.17
2018-08-16T16:03:03.390Z,97695.06
2018-08-16T16:05:31.651Z,97688.20
2018-08-16T16:08:00.452Z,97693.86
2018-08-16T16:10:28.620Z,97689.11
2018-08-16T16:12:56.859Z,97693.82
2018-08-16T16:15:25.110Z,97687.78
2018-08-16T16:17:53.322Z,97685.38
2018-08-16T16:20:21.543Z,97685.38
2018-08-16T16:22:49.763Z,97686.39
2018-08-16T16:25:18.799Z,97675.50
2018-08-16T16:27:47.015Z,97678.34
2018-08-16T16:30:15.236Z,97675.61
2018-08-16T16:32:43.444Z,97680.34
2018-08-16T16:35:11.687Z,97678.64
2018-08-16T16:37:39.946Z,97672.16
2018-08-16T16:40:09.667Z,97661.37
2018-08-16T16:42:38.559Z,97668.14
2018-08-16T16:45:06.973Z,97668.61
2018-08-16T16:47:35.167Z,97664.68
2018-08-16T16:50:03.515Z,97668.17
2018-08-16T16:52:31.751Z,97670.51
2018-08-16T16:54:59.927Z,97665.55
2018-08-16T16:57:28.218Z,97665.34
2018-08-16T16:59:56.528Z,97662.67
2018-08-16T17:02:24.842Z,97662.98
2018-08-16T17:04:53.110Z,97664.20
2018-08-16T17:07:21.346Z,97663.13
2018-08-16T17:09:49.619Z,97656.03
2018-08-16T17:12:17.831Z,97653.47
2018-08-16T17:14:46.152Z,97657.25
2018-08-16T17:17:14.434Z,97661.95
2018-08-16T17:19:42.711Z,97658.64
2018-08-16T17:22:11.022Z,97657.56
2018-08-16T17:24:39.278Z,97655.34
2018-08-16T17:27:07.535Z,97655.21
2018-08-16T17:29:35.754Z,97652.45
2018-08-16T17:32:04.082Z,97649.22
2018-08-16T17:34:32.261Z,97652.05
2018-08-16T17:37:00.531Z,97656.69
2018-08-16T17:39:28.923Z,97654.20
2018-08-16T17:41:57.204Z,97657.50
2018-08-16T17:44:25.518Z,97650.63
2018-08-16T17:46:53.711Z,97652.13
2018-08-16T17:49:22.083Z,97652.50
2018-08-16T17:51:50.392Z,97652.84
2018-08-16T17:54:18.647Z,97648.05
2018-08-16T17:56:46.946Z,97649.89
2018-08-16T17:59:15.200Z,97649.02
2018-08-16T18:01:43.580Z,97641.75
2018-08-16T18:04:11.800Z,97641.97
2018-08-16T18:06:40.099Z,97636.45
2018-08-16T18:09:08.747Z,97637.86
2018-08-16T18:11:36.970Z,97643.84
2018-08-16T18:14:05.287Z,97645.70
2018-08-16T18:16:33.583Z,97647.31
2018-08-16T18:19:02.119Z,97642.34
2018-08-16T18:21:30.523Z,97646.75
2018-08-16T18:23:58.754Z,97646.72
2018-08-16T18:26:27.344Z,97651.84
2018-08-16T18:28:55.495Z,97648.45
2018-08-16T18:31:23.685Z,97652.05
2018-08-16T18:33:51.968Z,97656.88
2018-08-16T18:36:20.975Z,97655.95
2018-08-16T18:38:49.283Z,97651.06
2018-08-16T18:41:17.594Z,97653.70
2018-08-16T18:43:45.843Z,97657.47
2018-08-16T18:46:14.111Z,97650.78
2018-08-16T18:48:42.334Z,97652.63
2018-08-16T18:51:10.547Z,97653.67
2018-08-16T18:53:38.859Z,97657.00
2018-08-16T18:56:07.170Z,97662.20
2018-08-16T18:58:40.339Z,97660.26
2018-08-16T19:01:08.971Z,97655.48
2018-08-16T19:03:37.222Z,97653.39
2018-08-16T19:06:05.539Z,97659.28
2018-08-16T19:08:33.834Z,97671.61
2018-08-16T19:11:02.121Z,97669.13
2018-08-16T19:13:30.412Z,97664.95
2018-08-16T19:15:59.789Z,97665.30
2018-08-16T19:18:27.976Z,97664.23
2018-08-16T19:20:56.246Z,97665.58
2018-08-16T19:23:24.458Z,97669.95
2018-08-16T19:25:52.816Z,97675.92
2018-08-16T19:28:21.047Z,97667.08
2018-08-16T19:30:49.299Z,97668.98
2018-08-16T19:33:17.604Z,97672.84
2018-08-16T19:35:45.869Z,97669.60
2018-08-16T19:38:14.042Z,97672.42
2018-08-16T19:40:42.246Z,97669.40
2018-08-16T19:43:10.534Z,97671.73
2018-08-16T19:45:38.792Z,97676.75
2018-08-16T19:48:07.565Z,97677.06
2018-08-16T19:50:35.706Z,97674.74
2018-08-16T19:53:03.968Z,97670.25
2018-08-16T19:55:32.193Z,97675.23
2018-08-16T19:58:00.868Z,97682.98
2018-08-16T20:00:29.020Z,97685.19
2018-08-16T20:02:57.313Z,97689.81
2018-08-16T20:05:25.539Z,97689.43
2018-08-16T20:07:53.743Z,97690.38
2018-08-16T20:10:21.934Z,97690.31
2018-08-16T20:12:50.162Z,97689.44
2018-08-16T20:15:18.422Z,97686.89
2018-08-16T20:17:46.651Z,97688.26
2018-08-16T20:20:14.847Z,97680.58
2018-08-16T20:22:43.277Z,97682.96
2018-08-16T20:25:11.479Z,97682.69
2018-08-16T20:27:39.699Z,97681.06
2018-08-16T20:30:07.930Z,97685.81
2018-08-16T20:32:36.098Z,97693.73
2018-08-16T20:35:04.439Z,97688.89
2018-08-16T20:37:32.659Z,97704.33
2018-08-16T20:40:00.867Z,97696.38
2018-08-16T20:42:29.105Z,97694.13
2018-08-16T20:44:57.312Z,97694.30
2018-08-16T20:47:25.531Z,97692.37
2018-08-16T20:49:53.727Z,97694.29
2018-08-16T20:52:21.935Z,97698.42
2018-08-16T20:54:50.157Z,97700.30
2018-08-16T20:57:18.383Z,97699.51
2018-08-16T20:59:46.594Z,97702.39
2018-08-16T21:02:14.794Z,97700.11
2018-08-16T21:04:43.019Z,97693.86
2018-08-16T21:07:11.343Z,97693.03
2018-08-16T21:09:39.539Z,97695.83
2018-08-16T21:12:07.852Z,97700.00
2018-08-16T21:14:36.055Z,97694.85
2018-08-16T21:17:04.263Z,97695.66
2018-08-16T21:19:32.579Z,97694.91
2018-08-16T21:22:00.851Z,97690.93
2018-08-16T21:24:29.136Z,97694.75
2018-08-16T21:26:57.499Z,97693.92
2018-08-16T21:29:25.730Z,97698.38
2018-08-16T21:31:54.018Z,97694.17
2018-08-16T21:34:22.290Z,97701.61
2018-08-16T21:36:50.595Z,97702.44
2018-08-16T21:39:20.827Z,97705.81
2018-08-16T21:41:49.214Z,97704.02
2018-08-16T21:44:17.431Z,97703.42
2018-08-16T21:46:52.238Z,97708.44
2018-08-16T21:49:20.553Z,97705.63
2018-08-16T21:51:48.843Z,97715.08
2018-08-16T21:54:17.114Z,97713.08
2018-08-16T21:56:45.309Z,97714.10
2018-08-16T21:59:13.582Z,97711.50
2018-08-16T22:01:42.184Z,97711.30
2018-08-16T22:04:10.471Z,97713.31
2018-08-16T22:08:15.502Z,97712.91
2018-08-16T22:10:44.327Z,97713.31
2018-08-16T22:13:12.635Z,97717.55
2018-08-16T22:15:41.187Z,97712.73
2018-08-16T22:18:09.447Z,97709.14
2018-08-16T22:20:37.720Z,97718.16
2018-08-16T22:23:06.098Z,97709.55
2018-08-16T22:25:34.396Z,97719.98
2018-08-16T22:28:02.594Z,97719.34
2018-08-16T22:30:30.928Z,97720.34
2018-08-16T22:32:59.169Z,97722.97
2018-08-16T22:35:27.994Z,97719.75
2018-08-16T22:37:56.238Z,97720.98
2018-08-16T22:40:24.555Z,97719.94
2018-08-16T22:42:52.827Z,97729.77
2018-08-16T22:45:21.118Z,97726.97
2018-08-16T22:47:49.439Z,97730.00
2018-08-16T22:50:17.675Z,97727.58
2018-08-16T22:52:45.968Z,97725.20
2018-08-16T22:55:14.259Z,97730.59
2018-08-16T23:00:12.852Z,97721.98
2018-08-16T23:02:41.923Z,97723.39
2018-08-16T23:05:10.252Z,97720.59
2018-08-16T23:07:38.639Z,97725.80
2018-08-16T23:10:07.039Z,97719.38
2018-08-16T23:12:35.364Z,97717.80
2018-08-16T23:15:03.735Z,97720.38
2018-08-16T23:17:32.028Z,97725.41
2018-08-16T23:20:00.335Z,97719.58
2018-08-16T23:22:28.659Z,97721.58
2018-08-16T23:24:56.949Z,97723.58
2018-08-16T23:27:25.171Z,97713.54
2018-08-16T23:29:53.363Z,97712.76
2018-08-16T23:32:21.547Z,97722.17
2018-08-16T23:34:49.960Z,97716.90
2018-08-16T23:37:18.263Z,97709.11
2018-08-16T23:39:46.579Z,97706.67
2018-08-16T23:42:14.818Z,97707.67
2018-08-16T23:44:43.142Z,97710.06
2018-08-16T23:47:11.479Z,97719.47
2018-08-16T23:49:39.723Z,97716.25
2018-08-16T23:52:07.964Z,97715.25
2018-08-16T23:54:36.179Z,97712.22
2018-08-16T23:57:04.487Z,97713.63
2018-08-16T23:59:32.744Z,97712.84
